createdAt,value
2017-01-27T00:01:08.052Z,65.09
2017-01-27T00:02:21.519Z,64.71
2017-01-27T00:03:36.071Z,64.52
2017-01-27T00:04:49.542Z,64.42
2017-01-27T00:06:04.128Z,64.71
2017-01-27T00:07:17.563Z,64.33
2017-01-27T00:08:31.509Z,64.9
2017-01-27T00:09:44.995Z,65.28
2017-01-27T00:10:58.781Z,65.75
2017-01-27T00:12:12.558Z,66.56
2017-01-27T00:13:26.015Z,66.22
2017-01-27T00:14:39.507Z,65.72
2017-01-27T00:15:53.415Z,65.47
2017-01-27T00:17:07.300Z,65.05
2017-01-27T00:18:21.080Z,64.86
2017-01-27T00:19:35.008Z,65.24
2017-01-27T00:20:48.417Z,65.81
2017-01-27T00:22:02.355Z,66.47
2017-01-27T00:23:16.234Z,66.09
2017-01-27T00:24:30.224Z,66.47
2017-01-27T00:25:44.498Z,65.91
2017-01-27T00:26:58.087Z,65.81
2017-01-27T00:28:11.599Z,66
2017-01-27T00:29:25.125Z,65.43
2017-01-27T00:30:38.904Z,64.96
2017-01-27T00:31:52.742Z,64.96
2017-01-27T00:33:06.210Z,64.86
2017-01-27T00:34:20.136Z,65.53
2017-01-27T00:35:36.578Z,65.91
2017-01-27T00:36:50.500Z,66.09
2017-01-27T00:38:04.322Z,66.63
2017-01-27T00:39:17.779Z,66.63
2017-01-27T00:40:31.774Z,67.38
2017-01-27T00:41:45.222Z,67.38
2017-01-27T00:42:58.958Z,67.19
2017-01-27T00:44:12.474Z,67.85
2017-01-27T00:45:25.943Z,67.95
2017-01-27T00:46:39.893Z,68.04
2017-01-27T00:47:53.350Z,68.8
2017-01-27T00:49:09.246Z,68.8
2017-01-27T00:50:23.170Z,69.09
2017-01-27T00:51:37.114Z,69.09
2017-01-27T00:52:50.978Z,69.09
2017-01-27T00:54:04.452Z,68.9
2017-01-27T00:55:18.196Z,68.99
2017-01-27T00:56:31.714Z,68.8
2017-01-27T00:57:45.181Z,68.9
2017-01-27T00:58:58.679Z,68.84
2017-01-27T01:00:12.655Z,69.02
2017-01-27T01:01:26.374Z,67.98
2017-01-27T01:02:40.724Z,67.95
2017-01-27T01:03:54.690Z,67.76
2017-01-27T01:05:08.605Z,67.95
2017-01-27T01:06:22.030Z,68.04
2017-01-27T01:07:35.836Z,68.14
2017-01-27T01:08:49.690Z,67.29
2017-01-27T01:10:03.710Z,67.95
2017-01-27T01:11:17.679Z,67.76
2017-01-27T01:12:31.643Z,67.89
2017-01-27T01:13:45.374Z,68.36
2017-01-27T01:14:58.882Z,68.55
2017-01-27T01:16:12.477Z,68.46
2017-01-27T01:18:54.778Z,67.13
2017-01-27T01:20:08.903Z,67
2017-01-27T01:21:22.788Z,67.29
2017-01-27T01:22:36.696Z,67.38
2017-01-27T01:23:50.258Z,67.95
2017-01-27T01:25:03.752Z,67.66
2017-01-27T01:26:17.507Z,67.95
2017-01-27T01:27:31.069Z,67.85
2017-01-27T01:28:44.864Z,68.14
2017-01-27T01:29:58.441Z,67.76
2017-01-27T01:31:11.891Z,67.95
2017-01-27T01:32:25.776Z,68.14
2017-01-27T01:33:39.314Z,67.76
2017-01-27T01:34:52.969Z,67.85
2017-01-27T01:36:06.483Z,67.85
2017-01-27T01:37:19.986Z,68.42
2017-01-27T01:38:33.962Z,68.23
2017-01-27T01:39:47.508Z,68.04
2017-01-27T01:41:01.938Z,67.76
2017-01-27T01:42:15.510Z,68.42
2017-01-27T01:43:29.039Z,68.61
2017-01-27T01:44:44.164Z,67.95
2017-01-27T01:45:58.159Z,67.85
2017-01-27T01:47:12.165Z,68.52
2017-01-27T01:48:25.717Z,67.76
2017-01-27T01:49:39.251Z,68.33
2017-01-27T01:50:53.145Z,68.52
2017-01-27T01:52:06.674Z,68.52
2017-01-27T01:53:20.364Z,69.14
2017-01-27T01:54:33.956Z,68.95
2017-01-27T01:55:47.565Z,69.05
2017-01-27T01:57:01.936Z,68.95
2017-01-27T01:58:15.452Z,69.52
2017-01-27T01:59:29.038Z,69.52
2017-01-27T02:00:42.912Z,69.52
2017-01-27T02:01:56.485Z,69.43
2017-01-27T02:03:10.799Z,69.71
2017-01-27T02:04:24.851Z,69.24
2017-01-27T02:05:40.526Z,69.71
2017-01-27T02:06:54.198Z,69.62
2017-01-27T02:08:07.701Z,69.62
2017-01-27T02:09:22.470Z,70
2017-01-27T02:10:36.559Z,69.81
2017-01-27T02:11:50.253Z,70.09
2017-01-27T02:13:04.313Z,70
2017-01-27T02:14:18.077Z,70.28
2017-01-27T02:15:31.994Z,70.09
2017-01-27T02:16:46.400Z,69.9
2017-01-27T02:18:00.631Z,69.81
2017-01-27T02:19:14.273Z,69.81
2017-01-27T02:20:27.742Z,69.71
2017-01-27T02:21:42.730Z,69.9
2017-01-27T02:22:56.258Z,69.65
2017-01-27T02:24:10.620Z,69.65
2017-01-27T02:25:24.082Z,69.74
2017-01-27T02:26:37.522Z,69.37
2017-01-27T02:27:51.375Z,69.56
2017-01-27T02:29:06.320Z,69.46
2017-01-27T02:30:19.915Z,69.09
2017-01-27T02:31:33.416Z,68.9
2017-01-27T02:32:47.026Z,68.99
2017-01-27T02:34:00.767Z,68.99
2017-01-27T02:35:14.611Z,68.23
2017-01-27T02:36:28.072Z,68.8
2017-01-27T02:37:42.130Z,68.9
2017-01-27T02:38:55.644Z,68.8
2017-01-27T02:40:09.763Z,68.9
2017-01-27T02:41:23.228Z,68.9
2017-01-27T02:42:39.549Z,68.52
2017-01-27T02:43:53.490Z,68.33
2017-01-27T02:45:06.979Z,68.04
2017-01-27T02:46:21.330Z,67.76
2017-01-27T02:47:34.836Z,67.95
2017-01-27T02:48:48.326Z,68.61
2017-01-27T02:50:01.902Z,68.23
2017-01-27T02:51:15.329Z,68.95
2017-01-27T02:52:29.038Z,69.05
2017-01-27T02:53:42.715Z,69.05
2017-01-27T02:54:56.145Z,69.43
2017-01-27T02:56:09.693Z,69.33
2017-01-27T02:57:23.156Z,69.71
2017-01-27T02:58:38.342Z,69.71
2017-01-27T02:59:51.862Z,70.18
2017-01-27T03:01:05.369Z,69.81
2017-01-27T03:02:18.994Z,70.28
2017-01-27T03:03:32.463Z,70.47
2017-01-27T03:04:46.249Z,70.09
2017-01-27T03:05:59.688Z,69.71
2017-01-27T03:07:13.280Z,70.09
2017-01-27T03:08:27.215Z,70.09
2017-01-27T03:09:40.764Z,70.09
2017-01-27T03:10:54.515Z,70.09
2017-01-27T03:12:08.367Z,69.9
2017-01-27T03:13:22.571Z,70
2017-01-27T03:14:36.005Z,69.9
2017-01-27T03:15:49.986Z,69.71
2017-01-27T03:17:03.754Z,69.81
2017-01-27T03:18:17.433Z,69.71
2017-01-27T03:19:30.896Z,70.18
2017-01-27T03:20:44.449Z,70.65
2017-01-27T03:22:00.108Z,71.12
2017-01-27T03:23:13.933Z,70.56
2017-01-27T03:24:27.822Z,70.75
2017-01-27T03:25:41.372Z,70.56
2017-01-27T03:26:54.826Z,70.56
2017-01-27T03:28:08.299Z,71.22
2017-01-27T03:29:22.062Z,71.03
2017-01-27T03:30:35.510Z,71.22
2017-01-27T03:31:48.975Z,71.22
2017-01-27T03:33:02.400Z,70.65
2017-01-27T03:34:15.807Z,70.84
2017-01-27T03:35:29.513Z,70.75
2017-01-27T03:36:43.051Z,71.12
2017-01-27T03:37:56.614Z,70.65
2017-01-27T03:39:10.163Z,70.84
2017-01-27T03:40:23.604Z,70.65
2017-01-27T03:41:37.787Z,70.65
2017-01-27T03:42:51.260Z,70.28
2017-01-27T03:44:04.716Z,70.18
2017-01-27T03:45:18.704Z,70.18
2017-01-27T03:46:32.402Z,70.28
2017-01-27T03:47:46.281Z,70.09
2017-01-27T03:48:59.754Z,70.09
2017-01-27T03:50:13.218Z,69.9
2017-01-27T03:51:26.984Z,69.81
2017-01-27T03:52:40.517Z,69.71
2017-01-27T03:53:54.313Z,70.28
2017-01-27T03:55:09.049Z,69.81
2017-01-27T03:56:22.611Z,70.09
2017-01-27T03:57:43.004Z,70
2017-01-27T03:58:57.305Z,69.62
2017-01-27T04:00:11.097Z,69.81
2017-01-27T04:01:24.541Z,69.74
2017-01-27T04:02:38.072Z,69.46
2017-01-27T04:03:51.962Z,69.65
2017-01-27T04:05:05.882Z,69.56
2017-01-27T04:06:20.123Z,69.62
2017-01-27T04:07:33.633Z,69.62
2017-01-27T04:08:47.249Z,69.52
2017-01-27T04:10:01.463Z,69.62
2017-01-27T04:11:15.549Z,69.43
2017-01-27T04:12:29.318Z,69.37
2017-01-27T04:13:42.804Z,69.65
2017-01-27T04:14:56.426Z,69.09
2017-01-27T04:16:09.898Z,68.8
2017-01-27T04:17:23.352Z,69.09
2017-01-27T04:18:37.395Z,68.9
2017-01-27T04:19:51.242Z,69.18
2017-01-27T04:21:04.704Z,68.99
2017-01-27T04:22:19.097Z,69.09
2017-01-27T04:23:32.562Z,69.09
2017-01-27T04:24:47.118Z,68.99
2017-01-27T04:26:00.717Z,69.18
2017-01-27T04:27:14.203Z,68.9
2017-01-27T04:28:27.633Z,68.9
2017-01-27T04:29:41.185Z,69.52
2017-01-27T04:30:55.811Z,69.05
2017-01-27T04:32:09.448Z,69.56
2017-01-27T04:33:23.306Z,69.24
2017-01-27T04:34:37.953Z,69.52
2017-01-27T04:35:51.351Z,69.18
2017-01-27T04:37:05.146Z,68.9
2017-01-27T04:38:20.803Z,68.8
2017-01-27T04:39:34.381Z,69.14
2017-01-27T04:40:47.854Z,69.05
2017-01-27T04:42:01.344Z,69.18
2017-01-27T04:43:15.165Z,69.14
2017-01-27T04:44:28.660Z,68.86
2017-01-27T04:45:42.349Z,69.05
2017-01-27T04:46:55.858Z,69.18
2017-01-27T04:48:09.351Z,68.9
2017-01-27T04:49:23.253Z,69.43
2017-01-27T04:50:36.867Z,69.24
2017-01-27T04:51:50.326Z,69.14
2017-01-27T04:53:03.840Z,69.09
2017-01-27T04:54:17.270Z,69.14
2017-01-27T04:55:31.508Z,69.62
2017-01-27T04:56:45.023Z,68.8
2017-01-27T04:57:58.553Z,68.8
2017-01-27T04:59:11.986Z,69.46
2017-01-27T05:00:25.492Z,69.33
2017-01-27T05:01:39.372Z,69.43
2017-01-27T05:02:52.938Z,69.52
2017-01-27T05:04:06.700Z,69.52
2017-01-27T05:05:20.323Z,69.52
2017-01-27T05:06:34.058Z,69.71
2017-01-27T05:07:48.591Z,69.43
2017-01-27T05:09:02.313Z,69.62
2017-01-27T05:10:15.746Z,70
2017-01-27T05:11:29.657Z,69.93
2017-01-27T05:12:43.195Z,69.33
2017-01-27T05:13:56.994Z,69.52
2017-01-27T05:15:10.477Z,69.52
2017-01-27T05:16:23.968Z,69.81
2017-01-27T05:17:37.436Z,69.9
2017-01-27T05:18:50.906Z,69.71
2017-01-27T05:20:05.034Z,69.52
2017-01-27T05:21:19.380Z,69.71
2017-01-27T05:22:34.242Z,69.9
2017-01-27T05:23:47.739Z,70.18
2017-01-27T05:25:01.174Z,69.62
2017-01-27T05:26:15.013Z,69.81
2017-01-27T05:27:28.442Z,69.62
2017-01-27T05:28:43.530Z,69.43
2017-01-27T05:29:56.973Z,69.71
2017-01-27T05:31:10.857Z,69.62
2017-01-27T05:32:24.940Z,69.52
2017-01-27T05:33:39.072Z,71.79
2017-01-27T05:34:52.488Z,71.12
2017-01-27T05:36:06.062Z,70.21
2017-01-27T05:37:19.547Z,70.21
2017-01-27T05:38:33.427Z,69.37
2017-01-27T05:39:47.720Z,69.18
2017-01-27T05:41:01.960Z,69.09
2017-01-27T05:42:16.348Z,69.09
2017-01-27T05:43:31.257Z,68.42
2017-01-27T05:44:45.120Z,68.61
2017-01-27T05:45:58.607Z,68.04
2017-01-27T05:47:12.074Z,68.14
2017-01-27T05:48:25.598Z,67.95
2017-01-27T05:49:39.316Z,67.85
2017-01-27T05:50:53.150Z,67.76
2017-01-27T05:52:07.136Z,67.57
2017-01-27T05:53:21.064Z,68.04
2017-01-27T05:54:37.327Z,67.47
2017-01-27T05:55:50.853Z,67.85
2017-01-27T05:57:04.795Z,67.57
2017-01-27T05:58:18.782Z,67.85
2017-01-27T05:59:32.508Z,67.66
2017-01-27T06:00:46.355Z,68.14
2017-01-27T06:02:00.110Z,67.85
2017-01-27T06:03:13.958Z,67.95
2017-01-27T06:04:28.947Z,67.85
2017-01-27T06:05:42.459Z,67.85
2017-01-27T06:06:56.511Z,68.61
2017-01-27T06:08:09.981Z,68.52
2017-01-27T06:09:23.751Z,68.42
2017-01-27T06:10:38.093Z,68.52
2017-01-27T06:11:53.588Z,68.9
2017-01-27T06:13:07.509Z,69.09
2017-01-27T06:14:21.069Z,68.9
2017-01-27T06:15:35.065Z,69.46
2017-01-27T06:16:48.531Z,69.14
2017-01-27T06:18:01.978Z,68.99
2017-01-27T06:19:15.899Z,68.9
2017-01-27T06:20:29.433Z,68.71
2017-01-27T06:21:43.209Z,69.27
2017-01-27T06:22:56.651Z,69.18
2017-01-27T06:24:10.244Z,68.71
2017-01-27T06:25:23.775Z,68.99
2017-01-27T06:26:37.665Z,69.27
2017-01-27T06:27:51.869Z,68.99
2017-01-27T06:29:05.367Z,68.71
2017-01-27T06:30:18.913Z,68.61
2017-01-27T06:31:33.281Z,68.99
2017-01-27T06:32:46.739Z,68.9
2017-01-27T06:34:00.481Z,69.18
2017-01-27T06:35:14.342Z,69.09
2017-01-27T06:36:28.715Z,68.9
2017-01-27T06:37:43.091Z,69.09
2017-01-27T06:38:56.555Z,69.18
2017-01-27T06:40:10.308Z,68.99
2017-01-27T06:41:23.808Z,68.99
2017-01-27T06:42:37.633Z,70.03
2017-01-27T06:43:51.087Z,70.03
2017-01-27T06:45:04.628Z,69.74
2017-01-27T06:46:18.729Z,69.09
2017-01-27T06:47:32.241Z,69.18
2017-01-27T06:48:45.684Z,69.37
2017-01-27T06:49:59.191Z,69.05
2017-01-27T06:51:12.665Z,69.52
2017-01-27T06:52:26.640Z,69.52
2017-01-27T06:53:40.071Z,69.33
2017-01-27T06:54:53.479Z,69.81
2017-01-27T06:56:07.323Z,69.62
2017-01-27T06:57:20.789Z,69.62
2017-01-27T06:58:34.560Z,69.71
2017-01-27T06:59:48.129Z,69.62
2017-01-27T07:01:14.276Z,69.52
2017-01-27T07:02:27.760Z,69.62
2017-01-27T07:04:00.426Z,69.81
2017-01-27T07:05:13.874Z,69.71
2017-01-27T07:06:27.276Z,69.71
2017-01-27T07:07:40.769Z,69.52
2017-01-27T07:08:54.169Z,69.62
2017-01-27T07:10:07.894Z,69.9
2017-01-27T07:11:23.505Z,69.9
2017-01-27T07:12:36.979Z,70.09
2017-01-27T07:13:50.792Z,69.9
2017-01-27T07:15:04.222Z,69.9
2017-01-27T07:16:17.964Z,69.81
2017-01-27T07:17:31.407Z,69.81
2017-01-27T07:18:56.029Z,69.81
2017-01-27T07:20:09.491Z,69.81
2017-01-27T07:21:22.914Z,69.81
2017-01-27T07:22:36.601Z,69.52
2017-01-27T07:23:50.225Z,69.81
2017-01-27T07:25:04.133Z,70.09
2017-01-27T07:26:17.692Z,70
2017-01-27T07:27:31.220Z,69.81
2017-01-27T07:28:45.019Z,69.62
2017-01-27T07:29:58.428Z,70.18
2017-01-27T07:31:12.006Z,69.52
2017-01-27T07:32:25.912Z,69.71
2017-01-27T07:33:41.229Z,69.74
2017-01-27T07:34:55.148Z,69.56
2017-01-27T07:36:09.065Z,69.46
2017-01-27T07:37:23.038Z,69.74
2017-01-27T07:38:36.717Z,72.3
2017-01-27T07:39:50.285Z,73.43
2017-01-27T07:41:04.111Z,71.07
2017-01-27T07:42:18.116Z,68.99
2017-01-27T07:43:31.724Z,68.8
2017-01-27T07:44:45.302Z,68.42
2017-01-27T07:45:58.931Z,68.14
2017-01-27T07:47:13.544Z,67.95
2017-01-27T07:48:27.039Z,67.95
2017-01-27T07:49:41.864Z,68.04
2017-01-27T07:50:56.201Z,68.14
2017-01-27T07:52:10.458Z,67.95
2017-01-27T07:53:24.313Z,68.04
2017-01-27T07:54:39.195Z,67.85
2017-01-27T07:55:52.922Z,67.76
2017-01-27T07:57:08.103Z,67.38
2017-01-27T07:58:21.847Z,67.47
2017-01-27T07:59:35.608Z,67.57
2017-01-27T08:00:50.188Z,67
2017-01-27T08:02:04.552Z,67
2017-01-27T08:03:18.732Z,66.72
2017-01-27T08:04:32.285Z,66.91
2017-01-27T08:05:46.341Z,66.44
2017-01-27T08:07:00.472Z,66.38
2017-01-27T08:08:14.157Z,66.28
2017-01-27T08:09:27.657Z,66.47
2017-01-27T08:10:41.312Z,65.72
2017-01-27T08:11:55.215Z,66
2017-01-27T08:13:09.142Z,65.97
2017-01-27T08:14:22.648Z,65.81
2017-01-27T08:15:38.344Z,65.72
2017-01-27T08:16:51.954Z,65.43
2017-01-27T08:18:06.767Z,65.53
2017-01-27T08:19:20.600Z,65.43
2017-01-27T08:20:34.206Z,65.53
2017-01-27T08:21:48.027Z,65.24
2017-01-27T08:23:01.568Z,65.91
2017-01-27T08:24:16.218Z,65.53
2017-01-27T08:25:30.443Z,65.81
2017-01-27T08:26:44.049Z,65.43
2017-01-27T08:27:59.819Z,65.24
2017-01-27T08:29:13.763Z,65.53
2017-01-27T08:30:29.552Z,65.53
2017-01-27T08:31:44.953Z,65.34
2017-01-27T08:32:58.828Z,65.24
2017-01-27T08:34:12.560Z,66.06
2017-01-27T08:35:26.725Z,65.62
2017-01-27T08:36:41.774Z,65.72
2017-01-27T08:37:55.294Z,66.09
2017-01-27T08:39:09.313Z,65.72
2017-01-27T08:40:22.952Z,65.62
2017-01-27T08:41:36.829Z,65.24
2017-01-27T08:42:50.661Z,65.62
2017-01-27T08:44:04.184Z,65.24
2017-01-27T08:45:17.819Z,65.34
2017-01-27T08:46:31.309Z,65.24
2017-01-27T08:47:46.528Z,65.21
2017-01-27T08:49:00.294Z,65.34
2017-01-27T08:50:14.154Z,65.53
2017-01-27T08:51:27.664Z,64.96
2017-01-27T08:52:41.211Z,65.43
2017-01-27T08:53:54.756Z,65.05
2017-01-27T08:55:08.556Z,64.67
2017-01-27T08:56:22.448Z,64.58
2017-01-27T08:57:35.918Z,64.01
2017-01-27T08:58:50.638Z,64.2
2017-01-27T09:00:04.514Z,64.11
2017-01-27T09:01:18.261Z,64.2
2017-01-27T09:02:32.295Z,63.82
2017-01-27T09:03:46.234Z,63.35
2017-01-27T09:04:59.661Z,63.54
2017-01-27T09:06:14.066Z,62.88
2017-01-27T09:07:27.808Z,62.88
2017-01-27T09:08:41.493Z,62.97
2017-01-27T09:09:55.083Z,62.88
2017-01-27T09:11:09.114Z,62.88
2017-01-27T09:12:23.197Z,62.59
2017-01-27T09:13:37.513Z,62.97
2017-01-27T09:14:51.457Z,63.73
2017-01-27T09:16:05.064Z,63.73
2017-01-27T09:17:19.045Z,64.01
2017-01-27T09:18:32.603Z,63.92
2017-01-27T09:19:46.606Z,64.2
2017-01-27T09:21:00.255Z,64.2
2017-01-27T09:22:13.837Z,64.2
2017-01-27T09:23:27.402Z,63.64
2017-01-27T09:24:40.944Z,63.92
2017-01-27T09:25:55.193Z,63.54
2017-01-27T09:27:09.423Z,63.26
2017-01-27T09:28:23.287Z,63.45
2017-01-27T09:29:37.298Z,62.69
2017-01-27T09:30:50.750Z,63.07
2017-01-27T09:32:04.512Z,62.44
2017-01-27T09:33:18.004Z,62.06
2017-01-27T09:34:31.503Z,62.25
2017-01-27T09:35:45.131Z,62.06
2017-01-27T09:36:58.636Z,62.06
2017-01-27T09:38:12.440Z,62.15
2017-01-27T09:39:25.942Z,62.06
2017-01-27T09:40:39.522Z,61.77
2017-01-27T09:41:53.089Z,61.49
2017-01-27T09:43:07.425Z,61.77
2017-01-27T09:44:23.961Z,61.49
2017-01-27T09:45:38.030Z,61.87
2017-01-27T09:46:51.872Z,61.87
2017-01-27T09:48:05.729Z,61.87
2017-01-27T09:49:19.579Z,61.68
2017-01-27T09:50:33.783Z,61.58
2017-01-27T09:51:47.281Z,61.02
2017-01-27T09:53:00.722Z,61.02
2017-01-27T09:54:14.617Z,61.21
2017-01-27T09:55:28.068Z,61.11
2017-01-27T09:56:41.892Z,61.11
2017-01-27T09:57:55.359Z,61.21
2017-01-27T09:59:09.252Z,61.11
2017-01-27T10:00:22.694Z,60.93
2017-01-27T10:01:36.160Z,60.26
2017-01-27T10:02:50.378Z,59.79
2017-01-27T10:04:03.954Z,59.79
2017-01-27T10:05:17.539Z,59.98
2017-01-27T10:06:31.871Z,59.88
2017-01-27T10:07:46.172Z,60.07
2017-01-27T10:08:59.928Z,59.98
2017-01-27T10:10:13.477Z,60
2017-01-27T10:11:30.043Z,59.53
2017-01-27T10:12:43.550Z,59.63
2017-01-27T10:13:57.045Z,60
2017-01-27T10:15:11.580Z,59.72
2017-01-27T10:16:25.064Z,59.81
2017-01-27T10:17:38.585Z,59.34
2017-01-27T10:18:52.021Z,59.16
2017-01-27T10:20:05.899Z,58.87
2017-01-27T10:21:20.114Z,58.68
2017-01-27T10:22:33.694Z,58.78
2017-01-27T10:23:47.328Z,58.87
2017-01-27T10:25:00.820Z,58.78
2017-01-27T10:26:14.274Z,58.97
2017-01-27T10:27:28.440Z,58.78
2017-01-27T10:28:41.975Z,58.78
2017-01-27T10:29:55.836Z,59.25
2017-01-27T10:31:09.297Z,59.34
2017-01-27T10:32:22.743Z,58.59
2017-01-27T10:33:37.038Z,58.4
2017-01-27T10:34:50.924Z,59.06
2017-01-27T10:36:04.378Z,59.16
2017-01-27T10:37:17.972Z,58.3
2017-01-27T10:38:31.526Z,58.3
2017-01-27T10:39:45.645Z,58.4
2017-01-27T10:40:59.112Z,57.92
2017-01-27T10:42:12.559Z,57.92
2017-01-27T10:43:26.018Z,57.76
2017-01-27T10:44:40.399Z,57.29
2017-01-27T10:45:54.582Z,56.91
2017-01-27T10:47:08.068Z,56.82
2017-01-27T10:48:27.797Z,56.91
2017-01-27T10:49:41.818Z,56.98
2017-01-27T10:50:55.307Z,57.17
2017-01-27T10:52:09.461Z,56.79
2017-01-27T10:53:22.873Z,57.01
2017-01-27T10:54:36.376Z,56.82
2017-01-27T10:55:49.858Z,56.82
2017-01-27T10:57:03.359Z,56.53
2017-01-27T10:58:17.581Z,56.53
2017-01-27T10:59:31.094Z,56.15
2017-01-27T11:00:46.733Z,56.06
2017-01-27T11:02:00.261Z,55.96
2017-01-27T11:03:13.741Z,55.58
2017-01-27T11:04:28.910Z,55.77
2017-01-27T11:05:42.403Z,55.96
2017-01-27T11:06:56.003Z,55.58
2017-01-27T11:08:09.589Z,56.25
2017-01-27T11:09:23.526Z,56.06
2017-01-27T11:10:37.302Z,55.77
2017-01-27T11:11:50.798Z,56.15
2017-01-27T11:13:04.786Z,55.87
2017-01-27T11:14:18.694Z,55.3
2017-01-27T11:15:33.440Z,55.11
2017-01-27T11:16:47.843Z,55.21
2017-01-27T11:18:01.720Z,55.3
2017-01-27T11:19:15.188Z,55.02
2017-01-27T11:20:28.675Z,55.02
2017-01-27T11:21:42.525Z,54.93
2017-01-27T11:22:56.741Z,55.02
2017-01-27T11:24:10.215Z,54.93
2017-01-27T11:25:24.088Z,55.02
2017-01-27T11:26:37.635Z,54.74
2017-01-27T11:27:51.160Z,54.64
2017-01-27T11:29:04.881Z,54.45
2017-01-27T11:30:18.797Z,54.64
2017-01-27T11:31:32.371Z,54.57
2017-01-27T11:32:45.851Z,53.91
2017-01-27T11:33:59.298Z,53.72
2017-01-27T11:35:32.699Z,53.91
2017-01-27T11:36:46.231Z,54.1
2017-01-27T11:37:59.698Z,54
2017-01-27T11:39:13.605Z,53.91
2017-01-27T11:40:27.422Z,53.81
2017-01-27T11:41:40.989Z,54.57
2017-01-27T11:42:54.551Z,53.97
2017-01-27T11:44:08.921Z,54.19
2017-01-27T11:45:22.405Z,53.91
2017-01-27T11:46:35.844Z,53.63
2017-01-27T11:48:21.607Z,53.34
2017-01-27T11:49:35.085Z,53.72
2017-01-27T11:50:49.292Z,53.63
2017-01-27T11:52:03.165Z,53.81
2017-01-27T11:53:16.722Z,53.06
2017-01-27T11:54:30.232Z,53.91
2017-01-27T11:55:43.642Z,54
2017-01-27T11:56:57.145Z,53.72
2017-01-27T11:58:11.134Z,53.72
2017-01-27T11:59:25.095Z,53.25
2017-01-27T12:00:38.848Z,52.48
2017-01-27T12:01:52.327Z,53.25
2017-01-27T12:03:06.346Z,53.15
2017-01-27T12:04:20.150Z,53.34
2017-01-27T12:05:34.081Z,53.34
2017-01-27T12:06:47.647Z,52.77
2017-01-27T12:08:02.749Z,52.58
2017-01-27T12:09:17.079Z,52.58
2017-01-27T12:10:30.993Z,53.06
2017-01-27T12:11:44.661Z,53.25
2017-01-27T12:12:59.019Z,52.77
2017-01-27T12:14:12.588Z,52.2
2017-01-27T12:15:27.072Z,52.29
2017-01-27T12:16:41.291Z,52.48
2017-01-27T12:17:57.093Z,52.39
2017-01-27T12:19:11.144Z,52.39
2017-01-27T12:20:25.147Z,52.58
2017-01-27T12:21:38.639Z,52.39
2017-01-27T12:22:52.416Z,52.39
2017-01-27T12:24:07.031Z,52.48
2017-01-27T12:25:20.489Z,52.29
2017-01-27T12:26:33.987Z,52.2
2017-01-27T12:27:47.876Z,51.76
2017-01-27T12:29:16.978Z,51.95
2017-01-27T12:30:30.486Z,51.85
2017-01-27T12:31:44.048Z,51.82
2017-01-27T12:32:57.519Z,51.82
2017-01-27T12:34:11.870Z,52.87
2017-01-27T12:35:25.704Z,53.08
2017-01-27T12:36:39.159Z,52.8
2017-01-27T12:37:53.246Z,51.66
2017-01-27T12:39:07.193Z,51.76
2017-01-27T12:40:21.201Z,52.04
2017-01-27T12:41:34.934Z,52.14
2017-01-27T12:42:48.560Z,52.04
2017-01-27T12:44:02.562Z,52.51
2017-01-27T12:45:16.551Z,52.7
2017-01-27T12:46:30.497Z,52.61
2017-01-27T12:47:44.257Z,52.51
2017-01-27T12:48:57.731Z,52.42
2017-01-27T12:50:11.318Z,52.14
2017-01-27T12:51:24.825Z,52.33
2017-01-27T12:52:38.397Z,52.42
2017-01-27T12:53:52.207Z,52.33
2017-01-27T12:55:06.274Z,52.89
2017-01-27T12:56:20.078Z,52.61
2017-01-27T12:57:33.983Z,52.89
2017-01-27T12:58:47.403Z,52.42
2017-01-27T13:00:01.608Z,52.61
2017-01-27T13:01:15.092Z,52.42
2017-01-27T13:02:28.747Z,52.42
2017-01-27T13:03:42.390Z,52.14
2017-01-27T13:04:55.876Z,51.85
2017-01-27T13:06:10.692Z,51.66
2017-01-27T13:07:24.181Z,51.85
2017-01-27T13:08:38.246Z,52.14
2017-01-27T13:09:51.886Z,52.51
2017-01-27T13:11:05.440Z,52.42
2017-01-27T13:12:19.558Z,52.42
2017-01-27T13:13:33.035Z,52.14
2017-01-27T13:14:48.841Z,51.66
2017-01-27T13:16:02.360Z,51.76
2017-01-27T13:17:16.366Z,51.57
2017-01-27T13:18:30.563Z,51.57
2017-01-27T13:19:44.071Z,51.76
2017-01-27T13:20:57.501Z,51.47
2017-01-27T13:22:25.886Z,51.47
2017-01-27T13:23:40.096Z,51.18
2017-01-27T13:24:54.294Z,50.99
2017-01-27T13:26:07.849Z,50.81
2017-01-27T13:27:21.506Z,51.28
2017-01-27T13:28:36.306Z,51.37
2017-01-27T13:29:50.185Z,51.57
2017-01-27T13:31:03.780Z,51.37
2017-01-27T13:32:17.879Z,51.28
2017-01-27T13:33:32.457Z,51.18
2017-01-27T13:34:48.653Z,51.28
2017-01-27T13:36:02.490Z,51.18
2017-01-27T13:37:16.885Z,50.99
2017-01-27T13:38:32.114Z,51.18
2017-01-27T13:39:46.267Z,51.09
2017-01-27T13:41:00.262Z,50.99
2017-01-27T13:42:14.135Z,50.62
2017-01-27T13:43:28.623Z,50.71
2017-01-27T13:44:42.130Z,51.09
2017-01-27T13:45:55.689Z,50.9
2017-01-27T13:47:09.192Z,50.99
2017-01-27T13:48:23.029Z,50.9
2017-01-27T13:49:36.538Z,50.62
2017-01-27T13:50:50.969Z,50.81
2017-01-27T13:52:04.867Z,51.18
2017-01-27T13:53:18.396Z,50.99
2017-01-27T13:54:32.292Z,51.18
2017-01-27T13:55:46.229Z,50.99
2017-01-27T13:57:00.143Z,51.37
2017-01-27T13:58:13.661Z,51.57
2017-01-27T13:59:27.658Z,51.47
2017-01-27T14:00:41.559Z,51.57
2017-01-27T14:01:55.050Z,51.85
2017-01-27T14:03:09.245Z,51.95
2017-01-27T14:04:23.008Z,51.95
2017-01-27T14:05:38.035Z,51.66
2017-01-27T14:06:52.281Z,51.85
2017-01-27T14:08:05.799Z,51.76
2017-01-27T14:09:19.383Z,51.76
2017-01-27T14:10:33.507Z,51.85
2017-01-27T14:11:47.272Z,51.76
2017-01-27T14:13:01.501Z,52.33
2017-01-27T14:14:15.006Z,52.42
2017-01-27T14:15:29.873Z,52.51
2017-01-27T14:16:43.637Z,52.33
2017-01-27T14:17:57.940Z,52.42
2017-01-27T14:19:12.025Z,52.42
2017-01-27T14:20:25.620Z,52.42
2017-01-27T14:21:39.217Z,52.42
2017-01-27T14:22:52.874Z,52.33
2017-01-27T14:24:07.176Z,52.33
2017-01-27T14:25:21.754Z,52.42
2017-01-27T14:26:36.743Z,52.51
2017-01-27T14:27:51.044Z,52.33
2017-01-27T14:29:05.087Z,51.95
2017-01-27T14:30:18.804Z,51.57
2017-01-27T14:31:32.884Z,51.95
2017-01-27T14:32:46.558Z,51.76
2017-01-27T14:34:00.231Z,52.23
2017-01-27T14:35:14.227Z,52.04
2017-01-27T14:36:29.327Z,52.14
2017-01-27T14:37:43.902Z,51.66
2017-01-27T14:38:57.449Z,51.85
2017-01-27T14:40:11.807Z,52.04
2017-01-27T14:41:25.369Z,51.76
2017-01-27T14:42:39.412Z,51.66
2017-01-27T14:43:53.295Z,51.66
2017-01-27T14:45:07.249Z,51.85
2017-01-27T14:46:20.782Z,51.76
2017-01-27T14:47:34.469Z,51.95
2017-01-27T14:48:48.241Z,51.85
2017-01-27T14:50:02.304Z,51.47
2017-01-27T14:51:18.581Z,51.76
2017-01-27T14:52:32.259Z,51.57
2017-01-27T14:53:46.019Z,51.66
2017-01-27T14:54:59.596Z,51.37
2017-01-27T14:56:13.753Z,51.47
2017-01-27T14:57:28.708Z,51.57
2017-01-27T14:58:43.003Z,51.76
2017-01-27T14:59:57.785Z,51.66
2017-01-27T15:01:11.922Z,51.47
2017-01-27T15:02:26.425Z,51.37
2017-01-27T15:03:40.495Z,51.09
2017-01-27T15:04:54.899Z,51.57
2017-01-27T15:06:08.340Z,51.66
2017-01-27T15:07:21.910Z,51.85
2017-01-27T15:08:37.143Z,51.95
2017-01-27T15:09:51.571Z,52.04
2017-01-27T15:11:05.929Z,51.95
2017-01-27T15:12:19.914Z,51.95
2017-01-27T15:13:34.071Z,52.04
2017-01-27T15:14:48.199Z,51.95
2017-01-27T15:16:01.946Z,51.76
2017-01-27T15:17:15.580Z,51.66
2017-01-27T15:18:29.763Z,51.85
2017-01-27T15:19:43.326Z,52.04
2017-01-27T15:20:57.139Z,52.51
2017-01-27T15:22:11.003Z,52.61
2017-01-27T15:23:24.579Z,52.7
2017-01-27T15:24:39.001Z,52.7
2017-01-27T15:25:52.878Z,52.51
2017-01-27T15:27:06.665Z,52.33
2017-01-27T15:28:20.167Z,52.51
2017-01-27T15:29:35.761Z,52.61
2017-01-27T15:30:49.286Z,52.61
2017-01-27T15:32:02.765Z,52.98
2017-01-27T15:33:17.079Z,53.27
2017-01-27T15:34:31.029Z,53.56
2017-01-27T15:35:48.403Z,53.56
2017-01-27T15:37:10.082Z,53.56
2017-01-27T15:38:26.225Z,53.84
2017-01-27T15:39:40.527Z,53.75
2017-01-27T15:40:54.096Z,53.94
2017-01-27T15:42:08.554Z,54.32
2017-01-27T15:43:22.895Z,54.13
2017-01-27T15:44:36.827Z,54.32
2017-01-27T15:45:51.037Z,54.32
2017-01-27T15:47:04.589Z,54.22
2017-01-27T15:48:19.846Z,54.41
2017-01-27T15:49:35.598Z,54.41
2017-01-27T15:50:49.168Z,54.69
2017-01-27T15:52:03.486Z,54.6
2017-01-27T15:53:17.656Z,54.98
2017-01-27T15:54:31.691Z,54.79
2017-01-27T15:55:45.314Z,54.98
2017-01-27T15:56:59.617Z,55.07
2017-01-27T15:58:13.894Z,54.88
2017-01-27T15:59:28.456Z,55.26
2017-01-27T16:00:42.518Z,55.26